Woolsey, Georgia
Current Conditions -  °F | °C
As of 4:23 PM on Sunday 23 Nov 2014 (Local Time) from KFFC Reporting Station
Heavy Rain Heavy Rain  
Wind Chill: 59°   Ceiling: 500
Heat Index: 59°   Visibility: 1mi
Dew Point: 57°   Wind: 10mph
Humidity: 93%   Direction: 130°SE
Pressure: 29.69"   Gusts: NA
Location:  33.4824°N, 84.4882°W
Report Text: KFFC 232123Z AUTO 13009KT 1SM +RA BR OVC005 15/14 A2969 RMK AO2 VIS 1/2V2 P0013 T01500139
Loading
Personal Weather Stations






























Interactive Weather Map New forecast layout! Learn more

10-Day Weather Forecast

Advertisements
Track Severe Weather on mobile